sensor_id;sensor_type;location;lat;lon;timestamp;pressure;altitude;pressure_sealevel;temperature;humidity
78643;BME280;67954;47.618;17.606;2023-06-26T00:00:24;100248.50;;;17.57;73.79
78643;BME280;67954;47.618;17.606;2023-06-26T00:00:56;100256.75;;;17.64;73.54
78643;BME280;67954;47.618;17.606;2023-06-26T00:01:27;100251.75;;;17.67;73.76
78643;BME280;67954;47.618;17.606;2023-06-26T00:02:00;100252.41;;;17.69;73.93
78643;BME280;67954;47.618;17.606;2023-06-26T00:02:31;100244.44;;;17.68;73.54
78643;BME280;67954;47.618;17.606;2023-06-26T00:03:04;100254.03;;;17.64;74.17
78643;BME280;67954;47.618;17.606;2023-06-26T00:03:35;100256.75;;;17.64;73.61
78643;BME280;67954;47.618;17.606;2023-06-26T00:04:07;100256.81;;;17.56;73.79
78643;BME280;67954;47.618;17.606;2023-06-26T00:04:38;100253.44;;;17.54;74.18
78643;BME280;67954;47.618;17.606;2023-06-26T00:05:09;100248.69;;;17.56;73.90
78643;BME280;67954;47.618;17.606;2023-06-26T00:05:41;100252.31;;;17.63;73.30
78643;BME280;67954;47.618;17.606;2023-06-26T00:06:12;100249.22;;;17.66;73.32
78643;BME280;67954;47.618;17.606;2023-06-26T00:06:43;100246.31;;;17.67;73.25
78643;BME280;67954;47.618;17.606;2023-06-26T00:07:15;100250.72;;;17.68;73.55
78643;BME280;67954;47.618;17.606;2023-06-26T00:07:46;100253.63;;;17.67;72.70
78643;BME280;67954;47.618;17.606;2023-06-26T00:08:17;100253.19;;;17.63;73.44
78643;BME280;67954;47.618;17.606;2023-06-26T00:08:49;100248.88;;;17.54;73.58
78643;BME280;67954;47.618;17.606;2023-06-26T00:09:19;100255.56;;;17.52;73.97
78643;BME280;67954;47.618;17.606;2023-06-26T00:09:50;100243.75;;;17.44;73.73
78643;BME280;67954;47.618;17.606;2023-06-26T00:10:23;100249.47;;;17.49;73.79
78643;BME280;67954;47.618;17.606;2023-06-26T00:10:54;100245.81;;;17.42;74.45
78643;BME280;67954;47.618;17.606;2023-06-26T00:11:24;100252.59;;;17.32;74.96
78643;BME280;67954;47.618;17.606;2023-06-26T00:11:58;100255.50;;;17.30;74.40
78643;BME280;67954;47.618;17.606;2023-06-26T00:12:29;100261.06;;;17.22;74.31
78643;BME280;67954;47.618;17.606;2023-06-26T00:13:00;100262.28;;;17.20;74.73
78643;BME280;67954;47.618;17.606;2023-06-26T00:13:34;100251.75;;;17.31;74.38
78643;BME280;67954;47.618;17.606;2023-06-26T00:14:04;100244.13;;;17.41;74.65
78643;BME280;67954;47.618;17.606;2023-06-26T00:14:35;100252.56;;;17.46;74.52
78643;BME280;67954;47.618;17.606;2023-06-26T00:15:08;100255.09;;;17.48;73.88
78643;BME280;67954;47.618;17.606;2023-06-26T00:15:39;100257.19;;;17.31;74.32
78643;BME280;67954;47.618;17.606;2023-06-26T00:16:09;100248.19;;;17.31;74.89
78643;BME280;67954;47.618;17.606;2023-06-26T00:16:41;100247.72;;;17.27;74.66
78643;BME280;67954;47.618;17.606;2023-06-26T00:17:13;100252.78;;;17.30;74.72
78643;BME280;67954;47.618;17.606;2023-06-26T00:17:43;100256.25;;;17.39;75.02
78643;BME280;67954;47.618;17.606;2023-06-26T00:18:18;100250.50;;;17.48;73.90
78643;BME280;67954;47.618;17.606;2023-06-26T00:18:49;100250.88;;;17.45;74.04
78643;BME280;67954;47.618;17.606;2023-06-26T00:19:20;100246.66;;;17.43;74.58
78643;BME280;67954;47.618;17.606;2023-06-26T00:19:52;100250.81;;;17.39;74.18
78643;BME280;67954;47.618;17.606;2023-06-26T00:20:23;100247.25;;;17.38;74.06
78643;BME280;67954;47.618;17.606;2023-06-26T00:20:55;100255.84;;;17.42;74.02
78643;BME280;67954;47.618;17.606;2023-06-26T00:21:27;100251.66;;;17.39;74.08
78643;BME280;67954;47.618;17.606;2023-06-26T00:21:58;100242.19;;;17.35;74.19
78643;BME280;67954;47.618;17.606;2023-06-26T00:22:31;100250.34;;;17.35;74.14
78643;BME280;67954;47.618;17.606;2023-06-26T00:23:03;100244.72;;;17.37;74.05
78643;BME280;67954;47.618;17.606;2023-06-26T00:23:38;100256.16;;;17.32;74.41
78643;BME280;67954;47.618;17.606;2023-06-26T00:24:08;100239.41;;;17.29;74.08
78643;BME280;67954;47.618;17.606;2023-06-26T00:24:40;100252.88;;;17.37;74.05
78643;BME280;67954;47.618;17.606;2023-06-26T00:25:11;100242.56;;;17.32;74.17
78643;BME280;67954;47.618;17.606;2023-06-26T00:25:42;100247.63;;;17.35;74.02
78643;BME280;67954;47.618;17.606;2023-06-26T00:26:14;100246.59;;;17.36;73.86
78643;BME280;67954;47.618;17.606;2023-06-26T00:26:47;100251.09;;;17.29;74.71
78643;BME280;67954;47.618;17.606;2023-06-26T00:27:18;100231.84;;;17.24;74.26
78643;BME280;67954;47.618;17.606;2023-06-26T00:27:49;100237.34;;;17.31;74.75
78643;BME280;67954;47.618;17.606;2023-06-26T00:28:20;100233.78;;;17.30;74.36
78643;BME280;67954;47.618;17.606;2023-06-26T00:28:51;100241.91;;;17.30;74.33
78643;BME280;67954;47.618;17.606;2023-06-26T00:29:23;100242.28;;;17.27;74.84
78643;BME280;67954;47.618;17.606;2023-06-26T00:29:54;100247.81;;;17.34;74.41
78643;BME280;67954;47.618;17.606;2023-06-26T00:30:25;100239.84;;;17.32;73.89
78643;BME280;67954;47.618;17.606;2023-06-26T00:30:56;100249.56;;;17.41;73.92
78643;BME280;67954;47.618;17.606;2023-06-26T00:31:28;100243.75;;;17.44;74.00
78643;BME280;67954;47.618;17.606;2023-06-26T00:31:59;100240.78;;;17.39;73.92
78643;BME280;67954;47.618;17.606;2023-06-26T00:32:29;100248.53;;;17.42;74.17
78643;BME280;67954;47.618;17.606;2023-06-26T00:33:01;100235.56;;;17.38;74.46
78643;BME280;67954;47.618;17.606;2023-06-26T00:33:34;100238.69;;;17.41;74.00
78643;BME280;67954;47.618;17.606;2023-06-26T00:34:04;100237.28;;;17.45;74.62
78643;BME280;67954;47.618;17.606;2023-06-26T00:34:36;100242.34;;;17.48;73.91
78643;BME280;67954;47.618;17.606;2023-06-26T00:35:07;100245.72;;;17.50;74.24
78643;BME280;67954;47.618;17.606;2023-06-26T00:35:38;100248.88;;;17.54;74.34
78643;BME280;67954;47.618;17.606;2023-06-26T00:36:10;100248.03;;;17.54;74.14
78643;BME280;67954;47.618;17.606;2023-06-26T00:36:41;100234.94;;;17.42;73.83
78643;BME280;67954;47.618;17.606;2023-06-26T00:37:13;100239.72;;;17.40;74.22
78643;BME280;67954;47.618;17.606;2023-06-26T00:37:45;100245.16;;;17.40;74.11
78643;BME280;67954;47.618;17.606;2023-06-26T00:38:17;100237.53;;;17.29;74.51
78643;BME280;67954;47.618;17.606;2023-06-26T00:38:47;100238.56;;;17.28;73.98
78643;BME280;67954;47.618;17.606;2023-06-26T00:39:19;100246.69;;;17.28;74.87
78643;BME280;67954;47.618;17.606;2023-06-26T00:39:50;100235.13;;;17.20;74.28
78643;BME280;67954;47.618;17.606;2023-06-26T00:40:21;100243.72;;;17.23;74.49
78643;BME280;67954;47.618;17.606;2023-06-26T00:40:53;100249.81;;;17.25;74.24
78643;BME280;67954;47.618;17.606;2023-06-26T00:41:25;100240.19;;;17.23;74.10
78643;BME280;67954;47.618;17.606;2023-06-26T00:41:56;100241.06;;;17.30;74.71
78643;BME280;67954;47.618;17.606;2023-06-26T00:42:27;100240.69;;;17.33;74.06
78643;BME280;67954;47.618;17.606;2023-06-26T00:42:58;100241.34;;;17.35;74.69
78643;BME280;67954;47.618;17.606;2023-06-26T00:43:29;100237.22;;;17.39;73.86
78643;BME280;67954;47.618;17.606;2023-06-26T00:44:00;100241.81;;;17.38;74.42
78643;BME280;67954;47.618;17.606;2023-06-26T00:44:31;100239.66;;;17.34;74.33
78643;BME280;67954;47.618;17.606;2023-06-26T00:45:04;100248.00;;;17.32;73.78
78643;BME280;67954;47.618;17.606;2023-06-26T00:45:34;100237.34;;;17.31;74.23
78643;BME280;67954;47.618;17.606;2023-06-26T00:46:10;100244.72;;;17.37;73.86
78643;BME280;67954;47.618;17.606;2023-06-26T00:46:42;100241.81;;;17.38;74.10
78643;BME280;67954;47.618;17.606;2023-06-26T00:47:15;100237.41;;;17.37;73.51
78643;BME280;67954;47.618;17.606;2023-06-26T00:47:46;100230.22;;;17.30;73.75
78643;BME280;67954;47.618;17.606;2023-06-26T00:48:18;100239.84;;;17.32;73.88
78643;BME280;67954;47.618;17.606;2023-06-26T00:48:52;100234.91;;;17.36;73.93
78643;BME280;67954;47.618;17.606;2023-06-26T00:49:25;100235.09;;;17.34;73.66
78643;BME280;67954;47.618;17.606;2023-06-26T00:49:57;100235.66;;;17.30;74.38
78643;BME280;67954;47.618;17.606;2023-06-26T00:50:28;100239.47;;;17.35;74.15
78643;BME280;67954;47.618;17.606;2023-06-26T00:51:00;100241.59;;;17.40;74.12
78643;BME280;67954;47.618;17.606;2023-06-26T00:51:32;100241.03;;;17.23;73.97
78643;BME280;67954;47.618;17.606;2023-06-26T00:52:04;100243.94;;;17.07;74.78
78643;BME280;67954;47.618;17.606;2023-06-26T00:52:35;100250.09;;;17.15;74.50
78643;BME280;67954;47.618;17.606;2023-06-26T00:53:09;100246.44;;;17.23;74.93
78643;BME280;67954;47.618;17.606;2023-06-26T00:53:40;100242.41;;;17.19;74.44
78643;BME280;67954;47.618;17.606;2023-06-26T00:54:12;100248.56;;;17.28;74.62
78643;BME280;67954;47.618;17.606;2023-06-26T00:54:50;100238.31;;;17.23;74.90
78643;BME280;67954;47.618;17.606;2023-06-26T00:55:22;100241.69;;;17.25;74.81
78643;BME280;67954;47.618;17.606;2023-06-26T00:55:52;100246.06;;;17.26;74.25
78643;BME280;67954;47.618;17.606;2023-06-26T00:56:24;100236.03;;;17.27;74.31
78643;BME280;67954;47.618;17.606;2023-06-26T00:56:55;100237.72;;;17.28;74.76
78643;BME280;67954;47.618;17.606;2023-06-26T00:57:27;100240.66;;;17.26;73.91
78643;BME280;67954;47.618;17.606;2023-06-26T00:57:58;100233.44;;;17.19;74.63
78643;BME280;67954;47.618;17.606;2023-06-26T00:58:30;100240.19;;;17.23;74.48
78643;BME280;67954;47.618;17.606;2023-06-26T00:59:00;100232.91;;;17.08;75.34
78643;BME280;67954;47.618;17.606;2023-06-26T00:59:31;100230.25;;;17.15;74.09
78643;BME280;67954;47.618;17.606;2023-06-26T01:00:05;100230.06;;;17.17;73.71
78643;BME280;67954;47.618;17.606;2023-06-26T01:00:36;100227.84;;;17.05;74.50
78643;BME280;67954;47.618;17.606;2023-06-26T01:01:07;100243.28;;;17.05;74.06
78643;BME280;67954;47.618;17.606;2023-06-26T01:01:46;100233.41;;;16.97;74.84
78643;BME280;67954;47.618;17.606;2023-06-26T01:02:18;100239.38;;;16.93;74.52
78643;BME280;67954;47.618;17.606;2023-06-26T01:02:50;100238.66;;;16.84;75.49
78643;BME280;67954;47.618;17.606;2023-06-26T01:03:23;100229.38;;;16.78;75.68
78643;BME280;67954;47.618;17.606;2023-06-26T01:03:56;100233.78;;;16.79;75.23
78643;BME280;67954;47.618;17.606;2023-06-26T01:04:27;100239.19;;;16.79;75.45
78643;BME280;67954;47.618;17.606;2023-06-26T01:05:03;100243.97;;;16.77;75.57
78643;BME280;67954;47.618;17.606;2023-06-26T01:05:36;100243.06;;;16.85;74.86
78643;BME280;67954;47.618;17.606;2023-06-26T01:06:12;100248.28;;;16.87;75.17
78643;BME280;67954;47.618;17.606;2023-06-26T01:06:46;100239.19;;;16.79;75.56
78643;BME280;67954;47.618;17.606;2023-06-26T01:07:19;100238.66;;;16.69;75.76
78643;BME280;67954;47.618;17.606;2023-06-26T01:07:51;100239.50;;;16.70;75.22
78643;BME280;67954;47.618;17.606;2023-06-26T01:08:24;100237.59;;;16.56;76.29
78643;BME280;67954;47.618;17.606;2023-06-26T01:08:57;100240.22;;;16.34;77.15
78643;BME280;67954;47.618;17.606;2023-06-26T01:09:29;100234.56;;;16.21;78.03
78643;BME280;67954;47.618;17.606;2023-06-26T01:10:02;100235.88;;;16.25;77.47
78643;BME280;67954;47.618;17.606;2023-06-26T01:10:33;100238.13;;;16.36;77.48
78643;BME280;67954;47.618;17.606;2023-06-26T01:11:05;100240.78;;;16.44;77.05
78643;BME280;67954;47.618;17.606;2023-06-26T01:11:37;100228.53;;;16.49;76.38
78643;BME280;67954;47.618;17.606;2023-06-26T01:12:08;100234.03;;;16.55;76.32
78643;BME280;67954;47.618;17.606;2023-06-26T01:12:39;100237.34;;;16.65;76.10
78643;BME280;67954;47.618;17.606;2023-06-26T01:13:12;100240.34;;;16.70;75.76
78643;BME280;67954;47.618;17.606;2023-06-26T01:13:43;100242.03;;;16.71;76.21
78643;BME280;67954;47.618;17.606;2023-06-26T01:14:15;100241.84;;;16.73;76.12
78643;BME280;67954;47.618;17.606;2023-06-26T01:14:47;100248.13;;;16.73;76.15
78643;BME280;67954;47.618;17.606;2023-06-26T01:15:18;100246.13;;;16.67;76.19
78643;BME280;67954;47.618;17.606;2023-06-26T01:15:49;100244.09;;;16.69;75.96
78643;BME280;67954;47.618;17.606;2023-06-26T01:16:22;100240.53;;;16.69;76.07
78643;BME280;67954;47.618;17.606;2023-06-26T01:16:54;100241.31;;;16.55;76.80
78643;BME280;67954;47.618;17.606;2023-06-26T01:17:28;100239.81;;;16.37;77.85
78643;BME280;67954;47.618;17.606;2023-06-26T01:18:04;100238.41;;;16.27;78.52
78643;BME280;67954;47.618;17.606;2023-06-26T01:18:38;100241.09;;;16.27;78.25
78643;BME280;67954;47.618;17.606;2023-06-26T01:19:19;100239.25;;;16.42;77.71
78643;BME280;67954;47.618;17.606;2023-06-26T01:19:55;100243.19;;;16.54;77.53
78643;BME280;67954;47.618;17.606;2023-06-26T01:20:28;100248.06;;;16.59;76.87
78643;BME280;67954;47.618;17.606;2023-06-26T01:21:00;100244.97;;;16.62;76.41
78643;BME280;67954;47.618;17.606;2023-06-26T01:21:33;100243.78;;;16.64;76.60
78643;BME280;67954;47.618;17.606;2023-06-26T01:22:15;100245.94;;;16.69;75.90
78643;BME280;67954;47.618;17.606;2023-06-26T01:22:56;100249.50;;;16.69;75.94
78643;BME280;67954;47.618;17.606;2023-06-26T01:23:38;100244.81;;;16.63;76.23
78643;BME280;67954;47.618;17.606;2023-06-26T01:24:16;100242.84;;;16.57;76.96
78643;BME280;67954;47.618;17.606;2023-06-26T01:25:01;100242.88;;;16.20;77.74
78643;BME280;67954;47.618;17.606;2023-06-26T01:25:40;100237.84;;;16.17;78.21
78643;BME280;67954;47.618;17.606;2023-06-26T01:26:19;100239.53;;;16.32;77.91
78643;BME280;67954;47.618;17.606;2023-06-26T01:26:51;100231.78;;;16.44;76.94
78643;BME280;67954;47.618;17.606;2023-06-26T01:27:24;100235.44;;;16.51;76.53
78643;BME280;67954;47.618;17.606;2023-06-26T01:27:56;100234.75;;;16.49;76.76
78643;BME280;67954;47.618;17.606;2023-06-26T01:28:28;100238.13;;;16.51;76.57
78643;BME280;67954;47.618;17.606;2023-06-26T01:29:01;100239.66;;;16.54;76.79
78643;BME280;67954;47.618;17.606;2023-06-26T01:29:35;100239.09;;;16.58;77.04
78643;BME280;67954;47.618;17.606;2023-06-26T01:30:07;100239.53;;;16.62;76.89
78643;BME280;67954;47.618;17.606;2023-06-26T01:30:43;100238.06;;;16.59;76.54
78643;BME280;67954;47.618;17.606;2023-06-26T01:31:16;100238.91;;;16.60;76.34
78643;BME280;67954;47.618;17.606;2023-06-26T01:31:49;100235.72;;;16.56;76.36
78643;BME280;67954;47.618;17.606;2023-06-26T01:32:20;100234.03;;;16.55;77.25
78643;BME280;67954;47.618;17.606;2023-06-26T01:32:52;100232.44;;;16.46;76.95
78643;BME280;67954;47.618;17.606;2023-06-26T01:33:23;100233.16;;;16.25;78.24
78643;BME280;67954;47.618;17.606;2023-06-26T01:33:56;100236.63;;;16.19;78.56
78643;BME280;67954;47.618;17.606;2023-06-26T01:34:29;100240.19;;;16.20;78.67
78643;BME280;67954;47.618;17.606;2023-06-26T01:35:01;100234.75;;;16.20;77.97
78643;BME280;67954;47.618;17.606;2023-06-26T01:35:32;100237.69;;;16.33;78.15
78643;BME280;67954;47.618;17.606;2023-06-26T01:36:05;100233.34;;;16.24;77.85
78643;BME280;67954;47.618;17.606;2023-06-26T01:36:36;100227.34;;;16.14;78.34
78643;BME280;67954;47.618;17.606;2023-06-26T01:37:07;100231.69;;;16.23;78.69
78643;BME280;67954;47.618;17.606;2023-06-26T01:37:39;100233.75;;;16.35;77.86
78643;BME280;67954;47.618;17.606;2023-06-26T01:38:15;100220.28;;;16.42;77.67
78643;BME280;67954;47.618;17.606;2023-06-26T01:38:46;100230.75;;;16.45;77.69
78643;BME280;67954;47.618;17.606;2023-06-26T01:39:19;100223.28;;;16.47;77.47
78643;BME280;67954;47.618;17.606;2023-06-26T01:39:51;100221.78;;;16.44;77.09
78643;BME280;67954;47.618;17.606;2023-06-26T01:40:21;100227.22;;;16.44;77.66
78643;BME280;67954;47.618;17.606;2023-06-26T01:40:52;100232.91;;;16.50;76.86
78643;BME280;67954;47.618;17.606;2023-06-26T01:41:26;100227.09;;;16.53;77.00
78643;BME280;67954;47.618;17.606;2023-06-26T01:41:57;100227.22;;;16.44;76.87
78643;BME280;67954;47.618;17.606;2023-06-26T01:42:27;100226.06;;;16.39;77.54
78643;BME280;67954;47.618;17.606;2023-06-26T01:42:59;100226.44;;;16.36;77.67
78643;BME280;67954;47.618;17.606;2023-06-26T01:43:36;100232.13;;;16.26;77.86
78643;BME280;67954;47.618;17.606;2023-06-26T01:44:21;100230.06;;;16.14;78.13
78643;BME280;67954;47.618;17.606;2023-06-26T01:44:55;100229.13;;;16.06;79.03
78643;BME280;67954;47.618;17.606;2023-06-26T01:45:29;100225.66;;;16.13;78.84
78643;BME280;67954;47.618;17.606;2023-06-26T01:46:06;100230.06;;;16.14;78.47
78643;BME280;67954;47.618;17.606;2023-06-26T01:46:52;100228.28;;;16.06;78.58
78643;BME280;67954;47.618;17.606;2023-06-26T01:47:27;100225.09;;;16.02;79.17
78643;BME280;67954;47.618;17.606;2023-06-26T01:48:01;100230.28;;;15.89;79.73
78643;BME280;67954;47.618;17.606;2023-06-26T01:48:42;100231.03;;;15.83;79.44
78643;BME280;67954;47.618;17.606;2023-06-26T01:49:21;100222.09;;;15.75;80.56
78643;BME280;67954;47.618;17.606;2023-06-26T01:49:59;100232.06;;;15.82;80.13
78643;BME280;67954;47.618;17.606;2023-06-26T01:50:33;100227.28;;;15.84;79.87
78643;BME280;67954;47.618;17.606;2023-06-26T01:51:08;100224.88;;;15.89;79.64
78643;BME280;67954;47.618;17.606;2023-06-26T01:51:42;100223.94;;;15.97;79.88
78643;BME280;67954;47.618;17.606;2023-06-26T01:52:20;100223.13;;;15.96;79.56
78643;BME280;67954;47.618;17.606;2023-06-26T01:53:01;100217.50;;;15.98;79.15
78643;BME280;67954;47.618;17.606;2023-06-26T01:53:38;100216.88;;;15.96;79.33
78643;BME280;67954;47.618;17.606;2023-06-26T01:54:16;100222.56;;;16.01;79.25
78643;BME280;67954;47.618;17.606;2023-06-26T01:54:59;100226.13;;;16.01;79.56
78643;BME280;67954;47.618;17.606;2023-06-26T01:55:40;100225.63;;;15.98;78.99
78643;BME280;67954;47.618;17.606;2023-06-26T01:56:16;100226.38;;;15.92;80.01
78643;BME280;67954;47.618;17.606;2023-06-26T01:56:52;100218.91;;;15.94;79.98
78643;BME280;67954;47.618;17.606;2023-06-26T01:57:26;100220.41;;;15.96;79.21
78643;BME280;67954;47.618;17.606;2023-06-26T01:57:59;100220.41;;;15.96;79.98
78643;BME280;67954;47.618;17.606;2023-06-26T01:58:32;100223.03;;;16.04;79.56
78643;BME280;67954;47.618;17.606;2023-06-26T01:59:05;100223.03;;;16.04;79.72
78643;BME280;67954;47.618;17.606;2023-06-26T01:59:40;100211.84;;;16.07;79.40
78643;BME280;67954;47.618;17.606;2023-06-26T02:00:14;100221.09;;;16.13;78.83
78643;BME280;67954;47.618;17.606;2023-06-26T02:00:48;100217.47;;;16.21;78.80
78643;BME280;67954;47.618;17.606;2023-06-26T02:01:20;100219.78;;;16.24;78.88
78643;BME280;67954;47.618;17.606;2023-06-26T02:01:52;100218.41;;;16.28;78.88
78643;BME280;67954;47.618;17.606;2023-06-26T02:02:23;100213.47;;;16.31;78.26
78643;BME280;67954;47.618;17.606;2023-06-26T02:02:56;100214.97;;;16.34;78.03
78643;BME280;67954;47.618;17.606;2023-06-26T02:03:27;100220.84;;;16.37;78.62
78643;BME280;67954;47.618;17.606;2023-06-26T02:03:58;100212.69;;;16.37;78.13
78643;BME280;67954;47.618;17.606;2023-06-26T02:04:30;100216.06;;;16.39;78.34
78643;BME280;67954;47.618;17.606;2023-06-26T02:05:01;100212.34;;;16.40;78.16
78643;BME280;67954;47.618;17.606;2023-06-26T02:05:32;100212.81;;;16.44;77.68
78643;BME280;67954;47.618;17.606;2023-06-26T02:06:04;100213.91;;;16.50;77.67
78643;BME280;67954;47.618;17.606;2023-06-26T02:06:34;100216.06;;;16.54;77.65
78643;BME280;67954;47.618;17.606;2023-06-26T02:07:05;100218.41;;;16.57;77.97
78643;BME280;67954;47.618;17.606;2023-06-26T02:07:40;100211.69;;;16.53;77.45
78643;BME280;67954;47.618;17.606;2023-06-26T02:08:13;100214.50;;;16.45;77.71
78643;BME280;67954;47.618;17.606;2023-06-26T02:08:44;100209.44;;;16.42;78.12
78643;BME280;67954;47.618;17.606;2023-06-26T02:09:16;100208.28;;;16.36;78.26
78643;BME280;67954;47.618;17.606;2023-06-26T02:09:48;100208.50;;;16.35;78.71
78643;BME280;67954;47.618;17.606;2023-06-26T02:10:18;100213.63;;;16.30;78.80
78643;BME280;67954;47.618;17.606;2023-06-26T02:10:50;100209.25;;;16.29;79.33
78643;BME280;67954;47.618;17.606;2023-06-26T02:11:21;100208.03;;;16.31;79.34
78643;BME280;67954;47.618;17.606;2023-06-26T02:11:53;100217.66;;;16.34;78.85
78643;BME280;67954;47.618;17.606;2023-06-26T02:12:25;100214.13;;;16.48;78.48
78643;BME280;67954;47.618;17.606;2023-06-26T02:12:56;100218.31;;;16.51;77.96
78643;BME280;67954;47.618;17.606;2023-06-26T02:13:27;100213.53;;;16.53;77.93
78643;BME280;67954;47.618;17.606;2023-06-26T02:13:59;100212.63;;;16.60;78.23
78643;BME280;67954;47.618;17.606;2023-06-26T02:14:30;100217.22;;;16.60;77.74
78643;BME280;67954;47.618;17.606;2023-06-26T02:15:00;100219.19;;;16.66;77.46
78643;BME280;67954;47.618;17.606;2023-06-26T02:15:32;100216.78;;;16.71;77.71
78643;BME280;67954;47.618;17.606;2023-06-26T02:16:03;100213.69;;;16.74;77.55
78643;BME280;67954;47.618;17.606;2023-06-26T02:16:34;100214.06;;;16.71;77.02
78643;BME280;67954;47.618;17.606;2023-06-26T02:17:05;100218.16;;;16.67;77.55
78643;BME280;67954;47.618;17.606;2023-06-26T02:17:39;100211.34;;;16.71;77.00
78643;BME280;67954;47.618;17.606;2023-06-26T02:18:10;100210.50;;;16.70;77.24
78643;BME280;67954;47.618;17.606;2023-06-26T02:18:40;100213.47;;;16.75;76.34
78643;BME280;67954;47.618;17.606;2023-06-26T02:19:12;100220.22;;;16.79;76.97
78643;BME280;67954;47.618;17.606;2023-06-26T02:19:51;100216.41;;;16.74;76.46
78643;BME280;67954;47.618;17.606;2023-06-26T02:20:22;100220.41;;;16.78;77.28
78643;BME280;67954;47.618;17.606;2023-06-26T02:20:54;100219.28;;;16.72;77.44
78643;BME280;67954;47.618;17.606;2023-06-26T02:21:25;100217.31;;;16.66;77.29
78643;BME280;67954;47.618;17.606;2023-06-26T02:21:56;100210.66;;;16.54;77.03
78643;BME280;67954;47.618;17.606;2023-06-26T02:22:27;100218.97;;;16.53;77.33
78643;BME280;67954;47.618;17.606;2023-06-26T02:22:59;100215.41;;;16.52;77.65
78643;BME280;67954;47.618;17.606;2023-06-26T02:23:29;100213.94;;;16.35;77.93
78643;BME280;67954;47.618;17.606;2023-06-26T02:24:01;100216.34;;;16.30;78.67
78643;BME280;67954;47.618;17.606;2023-06-26T02:24:32;100214.56;;;16.37;78.10
78643;BME280;67954;47.618;17.606;2023-06-26T02:25:05;100211.84;;;16.37;77.86
78643;BME280;67954;47.618;17.606;2023-06-26T02:25:37;100216.06;;;16.39;77.88
78643;BME280;67954;47.618;17.606;2023-06-26T02:26:08;100213.28;;;16.33;77.97
78643;BME280;67954;47.618;17.606;2023-06-26T02:26:38;100211.59;;;16.32;78.41
78643;BME280;67954;47.618;17.606;2023-06-26T02:27:12;100215.59;;;16.36;77.81
78643;BME280;67954;47.618;17.606;2023-06-26T02:27:43;100217.28;;;16.37;78.20
78643;BME280;67954;47.618;17.606;2023-06-26T02:28:14;100217.28;;;16.37;77.45
78643;BME280;67954;47.618;17.606;2023-06-26T02:28:46;100221.13;;;16.42;77.74
78643;BME280;67954;47.618;17.606;2023-06-26T02:29:17;100211.50;;;16.40;77.19
78643;BME280;67954;47.618;17.606;2023-06-26T02:29:47;100213.53;;;16.38;78.07
78643;BME280;67954;47.618;17.606;2023-06-26T02:30:22;100210.16;;;16.36;78.04
78643;BME280;67954;47.618;17.606;2023-06-26T02:30:53;100213.94;;;16.35;77.64
78643;BME280;67954;47.618;17.606;2023-06-26T02:31:24;100214.00;;;16.27;77.61
78643;BME280;67954;47.618;17.606;2023-06-26T02:31:55;100212.91;;;16.21;78.41
78643;BME280;67954;47.618;17.606;2023-06-26T02:32:26;100223.63;;;16.15;78.02
78643;BME280;67954;47.618;17.606;2023-06-26T02:32:57;100223.13;;;16.11;78.77
78643;BME280;67954;47.618;17.606;2023-06-26T02:33:29;100213.13;;;16.12;78.84
78643;BME280;67954;47.618;17.606;2023-06-26T02:34:00;100221.94;;;16.14;78.58
78643;BME280;67954;47.618;17.606;2023-06-26T02:34:31;100214.16;;;16.11;78.32
78643;BME280;67954;47.618;17.606;2023-06-26T02:35:04;100221.66;;;16.08;78.46
78643;BME280;67954;47.618;17.606;2023-06-26T02:35:35;100225.66;;;16.13;78.22
78643;BME280;67954;47.618;17.606;2023-06-26T02:36:06;100217.84;;;16.18;78.60
78643;BME280;67954;47.618;17.606;2023-06-26T02:36:37;100215.84;;;16.12;78.84
78643;BME280;67954;47.618;17.606;2023-06-26T02:37:09;100222.59;;;16.16;78.88
78643;BME280;67954;47.618;17.606;2023-06-26T02:37:40;100220.91;;;16.15;78.26
78643;BME280;67954;47.618;17.606;2023-06-26T02:38:11;100224.94;;;16.19;78.85
78643;BME280;67954;47.618;17.606;2023-06-26T02:38:46;100230.91;;;16.14;78.41
78643;BME280;67954;47.618;17.606;2023-06-26T02:39:17;100221.00;;;16.06;78.46
78643;BME280;67954;47.618;17.606;2023-06-26T02:39:48;100224.50;;;15.92;79.54
78643;BME280;67954;47.618;17.606;2023-06-26T02:40:19;100221.31;;;15.89;79.13
78643;BME280;67954;47.618;17.606;2023-06-26T02:40:51;100227.50;;;15.97;78.72
78643;BME280;67954;47.618;17.606;2023-06-26T02:41:21;100228.81;;;16.01;78.41
78643;BME280;67954;47.618;17.606;2023-06-26T02:41:52;100228.47;;;16.04;79.18
78643;BME280;67954;47.618;17.606;2023-06-26T02:42:25;100230.50;;;16.02;78.44
78643;BME280;67954;47.618;17.606;2023-06-26T02:42:56;100222.91;;;15.98;79.21
78643;BME280;67954;47.618;17.606;2023-06-26T02:43:27;100231.88;;;15.98;79.15
78643;BME280;67954;47.618;17.606;2023-06-26T02:43:59;100224.91;;;16.04;79.07
78643;BME280;67954;47.618;17.606;2023-06-26T02:44:30;100227.78;;;16.02;78.64
78643;BME280;67954;47.618;17.606;2023-06-26T02:45:00;100222.69;;;16.07;78.18
78643;BME280;67954;47.618;17.606;2023-06-26T02:45:32;100225.84;;;15.96;78.93
78643;BME280;67954;47.618;17.606;2023-06-26T02:46:03;100224.78;;;15.83;79.81
78643;BME280;67954;47.618;17.606;2023-06-26T02:46:34;100217.66;;;15.59;80.08
78643;BME280;67954;47.618;17.606;2023-06-26T02:47:05;100223.91;;;15.59;80.97
78643;BME280;67954;47.618;17.606;2023-06-26T02:47:36;100225.31;;;15.47;81.36
78643;BME280;67954;47.618;17.606;2023-06-26T02:48:09;100227.19;;;15.24;81.81